Back to Top

Language: 

My Weather Underground Personal Weather Station Historical Data with Graphs...

Delerius Weather Station Historical Data
 
Daily Summary for November 13, 2018 Units:  Metric    English   Both
« Previous Day
Next Day »
Daily Weekly Monthly Yearly Custom
  Current: High: Low: Average:
Temperature: 8.8 °C 8.8 °C 8.2 °C 8.4 °C
Dew Point: 6.4 °C 6.4 °C 5.9 °C 6.1 °C
Humidity: 85 % 86 % 85 % 86 %
Wind Speed: 14.5 km/h 22.5 km/h 6.4 km/h 17.9 km/h
Wind Gust: 25.7 km/h 37 km/h - -
Wind:SW - - SW
Pressure: 1007.3 hPa 1007.3 hPa 1006 hPa -
Precipitation: 0 mm      
Historical Graphs
 
 
Tabular Data for November 13, 2018
Time Temperature Dew Point Pressure Wind Wind Speed Wind Gust Humidity Rainfall Rate (Hourly) solar Conditions
00:04 8.2 °C 6 °C 1006.3 hPa SW 20.9 km/h 33.8 km/h 86 % 0 mm 0.00 W/m2
00:09 8.3 °C 6.1 °C 1006 hPa SW 22.5 km/h 35.4 km/h 86 % 0 mm 0.00 W/m2
00:14 8.3 °C 6.1 °C 1006 hPa SW 17.7 km/h 32.2 km/h 86 % 0 mm 0.00 W/m2
00:19 8.2 °C 6 °C 1006 hPa SW 17.7 km/h 32.2 km/h 86 % 0 mm 0.00 W/m2
00:24 8.3 °C 6.1 °C 1006.3 hPa SW 20.9 km/h 35.4 km/h 86 % 0 mm 0.00 W/m2
00:29 8.3 °C 6.1 °C 1006.3 hPa SW 20.9 km/h 32.2 km/h 86 % 0 mm 0.00 W/m2
00:34 8.4 °C 6.2 °C 1006.3 hPa SW 16.1 km/h 25.7 km/h 86 % 0 mm 0.00 W/m2
00:39 8.4 °C 6 °C 1006.3 hPa SW 19.3 km/h 37 km/h 85 % 0 mm 0.00 W/m2
00:44 8.4 °C 6 °C 1006.3 hPa SW 20.9 km/h 37 km/h 85 % 0 mm 0.00 W/m2
00:49 8.4 °C 6 °C 1006.3 hPa SW 20.9 km/h 33.8 km/h 85 % 0 mm 0.00 W/m2
00:54 8.3 °C 5.9 °C 1006.3 hPa SW 20.9 km/h 33.8 km/h 85 % 0 mm 0.00 W/m2
00:59 8.4 °C 6 °C 1006.3 hPa SW 19.3 km/h 35.4 km/h 85 % 0 mm 0.00 W/m2
01:04 8.3 °C 5.9 °C 1006.3 hPa SW 19.3 km/h 30.6 km/h 85 % 0 mm 0.00 W/m2
01:09 8.3 °C 5.9 °C 1006.3 hPa WSW 19.3 km/h 30.6 km/h 85 % 0 mm 0.00 W/m2
01:14 8.3 °C 6.1 °C 1006.3 hPa SW 16.1 km/h 29 km/h 86 % 0 mm 0.00 W/m2
01:19 8.4 °C 6.2 °C 1006.3 hPa SW 20.9 km/h 30.6 km/h 86 % 0 mm 0.00 W/m2
01:24 8.4 °C 6 °C 1006.7 hPa SW 16.1 km/h 29 km/h 85 % 0 mm 0.00 W/m2
01:29 8.4 °C 6 °C 1006.7 hPa SW 22.5 km/h 32.2 km/h 85 % 0 mm 0.00 W/m2
01:34 8.4 °C 6 °C 1006.7 hPa SW 14.5 km/h 20.9 km/h 85 % 0 mm 0.00 W/m2
01:39 8.4 °C 6 °C 1006.7 hPa SW 16.1 km/h 22.5 km/h 85 % 0 mm 0.00 W/m2
01:44 8.4 °C 6 °C 1006.3 hPa SW 19.3 km/h 30.6 km/h 85 % 0 mm 0.00 W/m2
01:49 8.3 °C 5.9 °C 1006.7 hPa SW 14.5 km/h 24.1 km/h 85 % 0 mm 0.00 W/m2
01:54 8.3 °C 6.1 °C 1006.7 hPa SW 20.9 km/h 30.6 km/h 86 % 0 mm 0.00 W/m2
01:59 8.3 °C 6.1 °C 1006.7 hPa SW 19.3 km/h 32.2 km/h 86 % 0 mm 0.00 W/m2
02:04 8.3 °C 6.1 °C 1006.7 hPa SW 17.7 km/h 25.7 km/h 86 % 0 mm 0.00 W/m2
02:09 8.4 °C 6.2 °C 1006.7 hPa SW 20.9 km/h 32.2 km/h 86 % 0 mm 0.00 W/m2
02:14 8.5 °C 6.3 °C 1007 hPa SW 14.5 km/h 22.5 km/h 86 % 0 mm 0.00 W/m2
02:19 8.5 °C 6.3 °C 1007 hPa SW 20.9 km/h 24.1 km/h 86 % 0 mm 0.00 W/m2
02:24 8.5 °C 6.3 °C 1007 hPa SW 14.5 km/h 24.1 km/h 86 % 0 mm 0.00 W/m2
02:29 8.5 °C 6.3 °C 1007 hPa SW 16.1 km/h 29 km/h 86 % 0 mm 0.00 W/m2
02:34 8.6 °C 6.4 °C 1007 hPa SW 17.7 km/h 25.7 km/h 86 % 0 mm 0.00 W/m2
02:39 8.6 °C 6.4 °C 1007 hPa SW 17.7 km/h 29 km/h 86 % 0 mm 0.00 W/m2
02:44 8.7 °C 6.3 °C 1007.3 hPa WSW 14.5 km/h 25.7 km/h 85 % 0 mm 0.00 W/m2
02:49 8.7 °C 6.3 °C 1007.3 hPa WSW 9.7 km/h 20.9 km/h 85 % 0 mm 0.00 W/m2
02:55 8.7 °C 6.3 °C 1007.3 hPa WSW 6.4 km/h 12.9 km/h 85 % 0 mm 0.00 W/m2
02:59 8.8 °C 6.4 °C 1007.3 hPa SW 14.5 km/h 25.7 km/h 85 % 0 mm 0.00 W/m2
Delerius-Weather
Compliments of Weather Underground - 1.25 mb

Data updates at regular intervals.